MSC Maria Saveria — 3FLE8 — position and weather

sailwx.info

Track history (hours):
 
Tides and Currents Weather Stations Pressure Air Temp Water Temp Dewpoint Dewpoint Depression Visibility Wind Speed Wind Dir Waves Ship Positions

MSC Maria Saveria

Last reported at 2016-Jun-30 20:28 UTC. Time now 2016-Jul-23 23:06 UTC.
Position N 31°27' E 032°19'.
Warning: this ship's position is 23 days out of date.

Length 366 m; draft 14.9 m.

Type: Ship (hazmat cat A). MMSI: 372400000.

Date/timePositionNaut miles runAvg speedWind from/ knotsBaromVisibWave heightAir tempDewpointWater temp
2016-Jun-30 20:28N 31°27' E 032°19'3 2.7
2016-Jun-30 19:32N 31°29' E 032°16'1312.8
2016-Jun-30 18:34N 31°38' E 032°06'1918.8
2016-Jun-30 17:33N 31°49' E 031°48'1918.7
2016-Jun-30 16:33N 31°57' E 031°28'1918.9
2016-Jun-30 15:33N 32°04' E 031°07'2219.5
2016-Jun-30 14:26N 32°13' E 030°44'1819.3
2016-Jun-30 13:31N 32°21' E 030°25'1919.4
2016-Jun-30 12:33N 32°28' E 030°05'2019.4
2016-Jun-30 11:30N 32°37' E 029°43'1819.1
2016-Jun-30 10:33N 32°44' E 029°23'1818.5
2016-Jun-30 09:33N 32°51' E 029°03'69820.5
2016-Jun-28 23:31N 37°43' E 016°06'1920.2
2016-Jun-28 22:34N 37°50' E 015°44'1818.0
2016-Jun-28 21:33N 38°07' E 015°34'1414.2
2016-Jun-28 20:33N 38°20' E 015°42'8 7.7
2016-Jun-28 19:33N 38°25' E 015°50'4 4.2
2016-Jun-28 18:33N 38°27' E 015°54'0 0.0
2016-Jun-28 17:33N 38°27' E 015°54'0 0.0
2016-Jun-28 16:33N 38°27' E 015°54'0 0.0
2016-Jun-28 15:33N 38°27' E 015°54'0 0.0
2016-Jun-28 14:33N 38°27' E 015°54'0 0.0
2016-Jun-28 13:33N 38°27' E 015°54'0 0.0
2016-Jun-28 12:33N 38°27' E 015°54'0 0.0
2016-Jun-28 11:33N 38°27' E 015°54'0 0.0
2016-Jun-28 10:33N 38°27' E 015°54'0 0.0
2016-Jun-28 09:30N 38°27' E 015°54'0 0.0
2016-Jun-28 08:33N 38°27' E 015°54'0 0.0
2016-Jun-28 07:33N 38°27' E 015°54'0 0.0
2016-Jun-28 06:33N 38°27' E 015°54'0 0.0
2016-Jun-28 04:33N 38°27' E 015°54'0 0.0
2016-Jun-28 03:33N 38°27' E 015°54'0 0.0
2016-Jun-28 02:33N 38°27' E 015°54'0 0.0
2016-Jun-28 01:33N 38°27' E 015°54'0 0.0
2016-Jun-28 00:24N 38°27' E 015°54'0 0.0
2016-Jun-27 23:33N 38°27' E 015°54'0 0.0
2016-Jun-27 22:33N 38°27' E 015°54'0 0.0
2016-Jun-27 21:33N 38°27' E 015°54'0 0.0
2016-Jun-27 20:33N 38°27' E 015°54'0 0.0
2016-Jun-27 19:33N 38°27' E 015°54'0 0.0
2016-Jun-27 18:30N 38°27' E 015°54'2 1.9
2016-Jun-27 17:33N 38°27' E 015°52'5 5.1
2016-Jun-27 16:33N 38°27' E 015°46'0 0.4
2016-Jun-27 15:33N 38°28' E 015°46'1 0.5
2016-Jun-27 14:33N 38°28' E 015°46'1 0.6
2016-Jun-27 13:33N 38°29' E 015°45'0 0.5
2016-Jun-27 12:33N 38°29' E 015°44'1 0.5
2016-Jun-27 11:33N 38°28' E 015°44'1 0.8
2016-Jun-27 10:33N 38°27' E 015°45'6 6.1
2016-Jun-27 09:33N 38°25' E 015°38'7 7.2
2016-Jun-27 08:33N 38°24' E 015°29'9 8.7
2016-Jun-27 07:33N 38°22' E 015°18'1010.5
2016-Jun-27 06:33N 38°20' E 015°05'1312.6
2016-Jun-27 05:33N 38°20' E 014°49'1313.2
2016-Jun-27 04:33N 38°21' E 014°32'1313.3
2016-Jun-27 03:33N 38°22' E 014°15'1313.2
2016-Jun-27 02:33N 38°23' E 013°58'1313.1
2016-Jun-27 01:33N 38°24' E 013°41'1413.7
2016-Jun-27 00:33N 38°25' E 013°24'1313.5
2016-Jun-26 23:33N 38°26' E 013°07'1313.2
2016-Jun-26 22:33N 38°27' E 012°50'1313.3
2016-Jun-26 21:33N 38°28' E 012°33'1313.0
2016-Jun-26 20:33N 38°28' E 012°16'1413.1
2016-Jun-26 19:29N 38°28' E 011°58'1213.2
2016-Jun-26 18:33N 38°28' E 011°43'1313.4
2016-Jun-26 17:33N 38°28' E 011°26'1313.3
2016-Jun-26 16:33N 38°28' E 011°09'1313.3
2016-Jun-26 15:33N 38°28' E 010°52'1414.2
2016-Jun-26 14:33N 38°28' E 010°34'1716.9
2016-Jun-26 13:33N 38°28' E 010°12'1716.9
2016-Jun-26 12:33N 38°28' E 009°51'1716.9
2016-Jun-26 11:33N 38°28' E 009°29'1716.9
2016-Jun-26 10:33N 38°28' E 009°07'1716.9
2016-Jun-26 09:33N 38°27' E 008°46'1716.8
2016-Jun-26 08:33N 38°23' E 008°25'6817.0
2016-Jun-26 04:33N 38°07' E 007°01'6616.5
2016-Jun-26 00:33N 37°52' E 005°39'2216.2
2016-Jun-25 23:13N 37°47' E 005°13'1015.7
2016-Jun-25 22:33N 37°45' E 004°60'1615.7
2016-Jun-25 21:33N 37°41' E 004°41'1616.2
2016-Jun-25 20:33N 37°37' E 004°21'1616.3
2016-Jun-25 19:33N 37°33' E 004°01'1616.3
2016-Jun-25 18:33N 37°29' E 003°41'1717.0
2016-Jun-25 17:33N 37°25' E 003°20'1717.2
2016-Jun-25 16:33N 37°22' E 002°59'1716.7
2016-Jun-25 15:33N 37°17' E 002°39'1616.4
2016-Jun-25 14:33N 37°14' E 002°18'1716.7
2016-Jun-25 13:33N 37°10' E 001°58'1717.0
2016-Jun-25 12:33N 37°06' E 001°37'1616.4
2016-Jun-25 11:34N 37°02' E 001°17'1616.3
2016-Jun-25 10:33N 36°58' E 000°58'1616.1
2016-Jun-25 09:33N 36°54' E 000°38'1616.0
2016-Jun-25 08:34N 36°51' E 000°18'1716.6
2016-Jun-25 07:33N 36°47' W 000°02'1717.0
2016-Jun-25 06:33N 36°42' W 000°22'1817.6
2016-Jun-25 05:33N 36°38' W 000°43'1817.8
2016-Jun-25 04:33N 36°34' W 001°05'1817.7
2016-Jun-25 03:33N 36°31' W 001°27'1717.1
2016-Jun-25 02:33N 36°27' W 001°47'1716.9
2016-Jun-25 01:33N 36°23' W 002°08'2017.0
2016-Jun-25 00:23N 36°19' W 002°32'14017.9
2016-Jun-24 16:33N 35°57' W 005°23'11115.9
2016-Jun-24 09:33N 36°12' W 007°39'1816.4
2016-Jun-24 08:27N 36°17' W 008°01'2116.7
2016-Jun-24 07:11N 36°22' W 008°26'4616.2
2016-Jun-24 04:21N 36°37' W 009°21'1315.9
2016-Jun-24 03:33N 36°47' W 009°31'2015.0
2016-Jun-24 02:12N 37°07' W 009°28'1717.5
2016-Jun-24 01:13N 37°22' W 009°17'1117.2
2016-Jun-24 00:33N 37°31' W 009°09'1717.0
2016-Jun-23 23:33N 37°45' W 008°56'1211.6
2016-Jun-23 22:31N 37°56' W 008°51'0 0.0
2016-Jun-23 21:31N 37°56' W 008°51'0 0.0
2016-Jun-23 20:28N 37°56' W 008°51'0 0.0
2016-Jun-23 19:31N 37°56' W 008°51'0 0.0
2016-Jun-23 18:31N 37°56' W 008°51'0 0.0
2016-Jun-23 17:31N 37°56' W 008°51'0 0.0
2016-Jun-23 16:31N 37°56' W 008°51'0 0.0
2016-Jun-23 15:31N 37°56' W 008°51'0 0.0
2016-Jun-23 14:31N 37°56' W 008°51'0 0.0
2016-Jun-23 13:31N 37°56' W 008°51'0 0.0
2016-Jun-23 12:31N 37°56' W 008°51'0 0.0
2016-Jun-23 11:28N 37°56' W 008°51'0 0.0
2016-Jun-23 10:31N 37°56' W 008°51'0 0.0
2016-Jun-23 09:31N 37°56' W 008°51'0 0.0
2016-Jun-23 08:31N 37°56' W 008°51'0 0.0
2016-Jun-23 07:31N 37°56' W 008°51'0 0.0
2016-Jun-23 05:31N 37°56' W 008°51'0 0.0
2016-Jun-23 04:31N 37°56' W 008°51'0 0.0
2016-Jun-23 03:31N 37°56' W 008°51'0 0.0
2016-Jun-23 02:31N 37°56' W 008°51'1 0.7
2016-Jun-23 01:33N 37°55' W 008°50'8 8.2
2016-Jun-23 00:33N 37°59' W 008°60'2 1.6
2016-Jun-22 23:33N 38°00' W 009°01'1 1.3
2016-Jun-22 22:33N 38°02' W 009°02'1 1.3
2016-Jun-22 21:33N 38°03' W 009°02'1 1.3
2016-Jun-22 20:33N 38°04' W 009°02'1 1.2
2016-Jun-22 19:34N 38°04' W 009°04'7 6.9
2016-Jun-22 18:33N 37°58' W 008°60'1 1.1
2016-Jun-22 17:33N 37°59' W 009°00'1 1.3
2016-Jun-22 16:30N 37°60' W 009°02'6 5.9
2016-Jun-22 15:33N 38°02' W 009°08'1414.4
2016-Jun-22 14:34N 38°11' W 009°22'1414.2
2016-Jun-22 13:33N 38°18' W 009°38'1514.6
2016-Jun-22 12:33N 38°28' W 009°52'1414.5
2016-Jun-22 11:33N 38°38' W 010°05'1414.4
2016-Jun-22 10:33N 38°52' W 010°07'1514.7
2016-Jun-22 09:32N 39°07' W 010°07'1414.5
2016-Jun-22 08:33N 39°22' W 010°07'1514.5
2016-Jun-22 07:32N 39°36' W 010°08'1414.3
2016-Jun-22 06:32N 39°50' W 010°07'  
Track history (hours):
 
Tides and Currents Weather Stations Pressure Air Temp Water Temp Dewpoint Dewpoint Depression Visibility Wind Speed Wind Dir Waves Ship Positions

MSC Maria Saveria

Last reported at 2016-Jun-30 20:28 UTC. Time now 2016-Jul-23 23:06 UTC.
Position N 31°27' E 032°19'.
Warning: this ship's position is 23 days out of date.

Length 366 m; draft 14.9 m.

Type: Ship (hazmat cat A). MMSI: 372400000.

Date/timePositionNaut miles runAvg speedWind from/ knotsBaromVisibWave heightAir tempDewpointWater temp
2016-Jun-30 20:28N 31°27' E 032°19'3 2.7
2016-Jun-30 19:32N 31°29' E 032°16'1312.8
2016-Jun-30 18:34N 31°38' E 032°06'1918.8
2016-Jun-30 17:33N 31°49' E 031°48'1918.7
2016-Jun-30 16:33N 31°57' E 031°28'1918.9
2016-Jun-30 15:33N 32°04' E 031°07'2219.5
2016-Jun-30 14:26N 32°13' E 030°44'1819.3
2016-Jun-30 13:31N 32°21' E 030°25'1919.4
2016-Jun-30 12:33N 32°28' E 030°05'2019.4
2016-Jun-30 11:30N 32°37' E 029°43'1819.1
2016-Jun-30 10:33N 32°44' E 029°23'1818.5
2016-Jun-30 09:33N 32°51' E 029°03'69820.5
2016-Jun-28 23:31N 37°43' E 016°06'1920.2
2016-Jun-28 22:34N 37°50' E 015°44'1818.0
2016-Jun-28 21:33N 38°07' E 015°34'1414.2
2016-Jun-28 20:33N 38°20' E 015°42'8 7.7
2016-Jun-28 19:33N 38°25' E 015°50'4 4.2
2016-Jun-28 18:33N 38°27' E 015°54'0 0.0
2016-Jun-28 17:33N 38°27' E 015°54'0 0.0
2016-Jun-28 16:33N 38°27' E 015°54'0 0.0
2016-Jun-28 15:33N 38°27' E 015°54'0 0.0
2016-Jun-28 14:33N 38°27' E 015°54'0 0.0
2016-Jun-28 13:33N 38°27' E 015°54'0 0.0
2016-Jun-28 12:33N 38°27' E 015°54'0 0.0
2016-Jun-28 11:33N 38°27' E 015°54'0 0.0
2016-Jun-28 10:33N 38°27' E 015°54'0 0.0
2016-Jun-28 09:30N 38°27' E 015°54'0 0.0
2016-Jun-28 08:33N 38°27' E 015°54'0 0.0
2016-Jun-28 07:33N 38°27' E 015°54'0 0.0
2016-Jun-28 06:33N 38°27' E 015°54'0 0.0
2016-Jun-28 04:33N 38°27' E 015°54'0 0.0
2016-Jun-28 03:33N 38°27' E 015°54'0 0.0
2016-Jun-28 02:33N 38°27' E 015°54'0 0.0
2016-Jun-28 01:33N 38°27' E 015°54'0 0.0
2016-Jun-28 00:24N 38°27' E 015°54'0 0.0
2016-Jun-27 23:33N 38°27' E 015°54'0 0.0
2016-Jun-27 22:33N 38°27' E 015°54'0 0.0
2016-Jun-27 21:33N 38°27' E 015°54'0 0.0
2016-Jun-27 20:33N 38°27' E 015°54'0 0.0
2016-Jun-27 19:33N 38°27' E 015°54'0 0.0
2016-Jun-27 18:30N 38°27' E 015°54'2 1.9
2016-Jun-27 17:33N 38°27' E 015°52'5 5.1
2016-Jun-27 16:33N 38°27' E 015°46'0 0.4
2016-Jun-27 15:33N 38°28' E 015°46'1 0.5
2016-Jun-27 14:33N 38°28' E 015°46'1 0.6
2016-Jun-27 13:33N 38°29' E 015°45'0 0.5
2016-Jun-27 12:33N 38°29' E 015°44'1 0.5
2016-Jun-27 11:33N 38°28' E 015°44'1 0.8
2016-Jun-27 10:33N 38°27' E 015°45'6 6.1
2016-Jun-27 09:33N 38°25' E 015°38'7 7.2
2016-Jun-27 08:33N 38°24' E 015°29'9 8.7
2016-Jun-27 07:33N 38°22' E 015°18'1010.5
2016-Jun-27 06:33N 38°20' E 015°05'1312.6
2016-Jun-27 05:33N 38°20' E 014°49'1313.2
2016-Jun-27 04:33N 38°21' E 014°32'1313.3
2016-Jun-27 03:33N 38°22' E 014°15'1313.2
2016-Jun-27 02:33N 38°23' E 013°58'1313.1
2016-Jun-27 01:33N 38°24' E 013°41'1413.7
2016-Jun-27 00:33N 38°25' E 013°24'1313.5
2016-Jun-26 23:33N 38°26' E 013°07'1313.2
2016-Jun-26 22:33N 38°27' E 012°50'1313.3
2016-Jun-26 21:33N 38°28' E 012°33'1313.0
2016-Jun-26 20:33N 38°28' E 012°16'1413.1
2016-Jun-26 19:29N 38°28' E 011°58'1213.2
2016-Jun-26 18:33N 38°28' E 011°43'1313.4
2016-Jun-26 17:33N 38°28' E 011°26'1313.3
2016-Jun-26 16:33N 38°28' E 011°09'1313.3
2016-Jun-26 15:33N 38°28' E 010°52'1414.2
2016-Jun-26 14:33N 38°28' E 010°34'1716.9
2016-Jun-26 13:33N 38°28' E 010°12'1716.9
2016-Jun-26 12:33N 38°28' E 009°51'1716.9
2016-Jun-26 11:33N 38°28' E 009°29'1716.9
2016-Jun-26 10:33N 38°28' E 009°07'1716.9
2016-Jun-26 09:33N 38°27' E 008°46'1716.8
2016-Jun-26 08:33N 38°23' E 008°25'6817.0
2016-Jun-26 04:33N 38°07' E 007°01'6616.5
2016-Jun-26 00:33N 37°52' E 005°39'2216.2
2016-Jun-25 23:13N 37°47' E 005°13'1015.7
2016-Jun-25 22:33N 37°45' E 004°60'1615.7
2016-Jun-25 21:33N 37°41' E 004°41'1616.2
2016-Jun-25 20:33N 37°37' E 004°21'1616.3
2016-Jun-25 19:33N 37°33' E 004°01'1616.3
2016-Jun-25 18:33N 37°29' E 003°41'1717.0
2016-Jun-25 17:33N 37°25' E 003°20'1717.2
2016-Jun-25 16:33N 37°22' E 002°59'1716.7
2016-Jun-25 15:33N 37°17' E 002°39'1616.4
2016-Jun-25 14:33N 37°14' E 002°18'1716.7
2016-Jun-25 13:33N 37°10' E 001°58'1717.0
2016-Jun-25 12:33N 37°06' E 001°37'1616.4
2016-Jun-25 11:34N 37°02' E 001°17'1616.3
2016-Jun-25 10:33N 36°58' E 000°58'1616.1
2016-Jun-25 09:33N 36°54' E 000°38'1616.0
2016-Jun-25 08:34N 36°51' E 000°18'1716.6
2016-Jun-25 07:33N 36°47' W 000°02'1717.0
2016-Jun-25 06:33N 36°42' W 000°22'1817.6
2016-Jun-25 05:33N 36°38' W 000°43'1817.8
2016-Jun-25 04:33N 36°34' W 001°05'1817.7
2016-Jun-25 03:33N 36°31' W 001°27'1717.1
2016-Jun-25 02:33N 36°27' W 001°47'1716.9
2016-Jun-25 01:33N 36°23' W 002°08'2017.0
2016-Jun-25 00:23N 36°19' W 002°32'14017.9
2016-Jun-24 16:33N 35°57' W 005°23'11115.9
2016-Jun-24 09:33N 36°12' W 007°39'1816.4
2016-Jun-24 08:27N 36°17' W 008°01'2116.7
2016-Jun-24 07:11N 36°22' W 008°26'4616.2
2016-Jun-24 04:21N 36°37' W 009°21'1315.9
2016-Jun-24 03:33N 36°47' W 009°31'2015.0
2016-Jun-24 02:12N 37°07' W 009°28'1717.5
2016-Jun-24 01:13N 37°22' W 009°17'1117.2
2016-Jun-24 00:33N 37°31' W 009°09'1717.0
2016-Jun-23 23:33N 37°45' W 008°56'1211.6
2016-Jun-23 22:31N 37°56' W 008°51'0 0.0
2016-Jun-23 21:31N 37°56' W 008°51'0 0.0
2016-Jun-23 20:28N 37°56' W 008°51'0 0.0
2016-Jun-23 19:31N 37°56' W 008°51'0 0.0
2016-Jun-23 18:31N 37°56' W 008°51'0 0.0
2016-Jun-23 17:31N 37°56' W 008°51'0 0.0
2016-Jun-23 16:31N 37°56' W 008°51'0 0.0
2016-Jun-23 15:31N 37°56' W 008°51'0 0.0
2016-Jun-23 14:31N 37°56' W 008°51'0 0.0
2016-Jun-23 13:31N 37°56' W 008°51'0 0.0
2016-Jun-23 12:31N 37°56' W 008°51'0 0.0
2016-Jun-23 11:28N 37°56' W 008°51'0 0.0
2016-Jun-23 10:31N 37°56' W 008°51'0 0.0
2016-Jun-23 09:31N 37°56' W 008°51'0 0.0
2016-Jun-23 08:31N 37°56' W 008°51'0 0.0
2016-Jun-23 07:31N 37°56' W 008°51'0 0.0
2016-Jun-23 05:31N 37°56' W 008°51'0 0.0
2016-Jun-23 04:31N 37°56' W 008°51'0 0.0
2016-Jun-23 03:31N 37°56' W 008°51'0 0.0
2016-Jun-23 02:31N 37°56' W 008°51'1 0.7
2016-Jun-23 01:33N 37°55' W 008°50'8 8.2
2016-Jun-23 00:33N 37°59' W 008°60'2 1.6
2016-Jun-22 23:33N 38°00' W 009°01'1 1.3
2016-Jun-22 22:33N 38°02' W 009°02'1 1.3
2016-Jun-22 21:33N 38°03' W 009°02'1 1.3
2016-Jun-22 20:33N 38°04' W 009°02'1 1.2
2016-Jun-22 19:34N 38°04' W 009°04'7 6.9
2016-Jun-22 18:33N 37°58' W 008°60'1 1.1
2016-Jun-22 17:33N 37°59' W 009°00'1 1.3
2016-Jun-22 16:30N 37°60' W 009°02'6 5.9
2016-Jun-22 15:33N 38°02' W 009°08'1414.4
2016-Jun-22 14:34N 38°11' W 009°22'1414.2
2016-Jun-22 13:33N 38°18' W 009°38'1514.6
2016-Jun-22 12:33N 38°28' W 009°52'1414.5
2016-Jun-22 11:33N 38°38' W 010°05'1414.4
2016-Jun-22 10:33N 38°52' W 010°07'1514.7
2016-Jun-22 09:32N 39°07' W 010°07'1414.5
2016-Jun-22 08:33N 39°22' W 010°07'1514.5
2016-Jun-22 07:32N 39°36' W 010°08'1414.3
2016-Jun-22 06:32N 39°50' W 010°07'  

Dump ship's entire track history